Data for 02/26/2008

Time Sea-Level Adjusted Pressure Absolute Pressure Temperature Relative Humidity Dew Point   
(mb) (inHg) (mb) (inHg) (C) (F) (%) (C) (F)
00:05 1028 30.36 857 25.31 -2.7 27.2 164 4.2 39.6
00:10 1028 30.36 857 25.31 -2.7 27.2 164 4.2 39.6
00:15 1028 30.36 857 25.31 -2.8 27 164 4.1 39.4
00:20 1028 30.36 857 25.31 -2.8 27 164 4.1 39.3
00:25 1028 30.36 857 25.31 -2.8 27 164 4.1 39.4
00:30 1028 30.36 857 25.31 -2.8 27 164 4.1 39.3
00:35 1028 30.36 857 25.31 -2.8 26.9 164 4 39.3
00:40 1028 30.36 857 25.31 -2.9 26.8 164 4 39.1
00:45 1028 30.36 857 25.31 -3 26.5 164 3.8 38.9
00:50 1028 30.36 857 25.31 -3.1 26.5 165 3.8 38.8
00:55 1028 30.36 857 25.31 -3.1 26.5 164 3.8 38.8
01:00 1028 30.36 857 25.31 -3.2 26.3 164 3.7 38.7
01:05 1028 30.36 857 25.31 -3.2 26.3 164 3.7 38.6
01:10 1028 30.36 857 25.31 -3.2 26.2 164 3.6 38.5
01:15 1028 30.36 857 25.31 -3.3 26.1 164 3.6 38.4
01:20 1028 30.36 857 25.31 -3.3 26 164 3.5 38.4
01:25 1028 30.36 857 25.31 -3.4 25.9 164 3.5 38.2
01:30 1028 30.36 857 25.31 -3.5 25.7 164 3.3 38
01:35 1028 30.36 857 25.31 -3.6 25.5 164 3.2 37.8
01:40 1028 30.36 857 25.31 -3.6 25.4 164 3.2 37.7
01:45 1028 30.36 857 25.31 -3.7 25.4 164 3.1 37.7
01:50 1028 30.36 857 25.31 -3.7 25.4 164 3.1 37.7
01:55 1028 30.36 857 25.31 -3.8 25.2 165 3.1 37.5
02:00 1028 30.36 857 25.31 -3.9 25 164 2.9 37.3
02:05 1028 30.36 857 25.31 -4.1 24.7 164 2.8 37
02:10 1028 30.36 857 25.31 -4.1 24.5 165 2.7 36.8
02:15 1028 30.36 857 25.31 -4.2 24.5 165 2.6 36.8
02:20 1028 30.36 857 25.31 -4.1 24.7 164 2.7 36.9
02:25 1028 30.36 857 25.31 -4 24.8 164 2.8 37.1
02:30 1028 30.36 857 25.31 -3.8 25.1 164 3 37.4
02:35 1027 30.33 857 25.31 -3.8 25.1 164 3 37.4
02:40 1027 30.33 857 25.31 -3.6 25.5 165 3.2 37.8
02:45 1028 30.36 857 25.31 -3.5 25.7 165 3.3 38
02:50 1028 30.36 857 25.31 -3.6 25.5 165 3.2 37.8
02:55 1028 30.36 857 25.31 -3.8 25.1 165 3 37.4
03:00 1028 30.36 857 25.31 -4 24.9 164 2.9 37.1
03:05 1028 30.36 857 25.31 -4 24.7 165 2.8 37
03:10 1028 30.36 857 25.31 -4.3 24.2 165 2.5 36.5
03:15 1028 30.36 857 25.31 -4.5 23.9 165 2.3 36.2
03:20 1028 30.36 857 25.31 -4.6 23.8 164 2.2 36
03:25 1028 30.36 857 25.31 -4.6 23.7 164 2.2 35.9
03:30 1028 30.36 857 25.31 -4.7 23.5 165 2.1 35.8
03:35 1028 30.36 857 25.31 -4.8 23.4 165 2 35.6
03:40 1028 30.36 857 25.31 -4.9 23.1 165 1.8 35.3
03:45 1028 30.36 857 25.31 -5.2 22.6 165 1.5 34.8
03:50 1028 30.36 857 25.31 -5.8 21.6 165 1 33.8
03:55 1028 30.36 857 25.31 -5.9 21.4 165 0.8 33.5
04:00 1028 30.36 857 25.31 -6.1 21.1 165 0.6 33.2
04:05 1028 30.36 857 25.31 -6.2 20.9 165 0.5 33
04:10 1028 30.36 857 25.31 -6.5 20.2 165 0.2 32.3
04:15 1028 30.36 857 25.31 -6.9 19.5 165 -0.3 31.5
04:20 1028 30.36 857 25.31 -7.5 18.6 165 -0.8 30.6
04:25 1028 30.36 857 25.31 -8.4 16.9 165 -1.8 28.8
04:30 1028 30.36 857 25.31 -8.5 16.7 165 -1.9 28.6
04:35 1028 30.36 857 25.31 -8.1 17.4 165 -1.5 29.3
04:40 1028 30.36 857 25.31 -7.9 17.8 165 -1.3 29.7
04:45 1028 30.36 857 25.31 -7.9 17.9 165 -1.2 29.8
04:50 1028 30.36 857 25.31 -7.8 18 165 -1.1 30
04:55 1028 30.36 857 25.31 -7.7 18.1 165 -1.1 30.1
05:00 1028 30.36 858 25.34 -7.6 18.3 165 -1 30.3
05:05 1028 30.36 858 25.34 -7.6 18.3 165 -1 30.3
05:10 1028 30.36 858 25.34 -7.6 18.3 165 -0.9 30.3
05:15 1029 30.39 858 25.34 -7.6 18.3 165 -1 30.3
05:20 1029 30.39 858 25.34 -7.9 17.8 165 -1.2 29.8
05:25 1029 30.39 858 25.34 -8.1 17.4 165 -1.5 29.4
05:30 1029 30.39 858 25.34 -7.9 17.7 165 -1.3 29.7
05:35 1029 30.39 858 25.34 -8.2 17.3 165 -1.6 29.2
05:40 1029 30.39 858 25.34 -8.4 16.9 165 -1.8 28.8
05:45 1029 30.39 858 25.34 -8.5 16.8 165 -1.8 28.7
05:50 1028 30.36 858 25.34 -8.8 16.1 165 -2.2 28
05:55 1028 30.36 857 25.31 -9 15.8 165 -2.4 27.7
06:00 1028 30.36 857 25.31 -8.8 16.2 165 -2.2 28.1
06:05 1028 30.36 857 25.31 -8.7 16.4 165 -2 28.3
06:10 1028 30.36 857 25.31 -8.6 16.5 165 -2 28.4
06:15 1028 30.36 857 25.31 -8.5 16.7 165 -1.9 28.6
06:20 1028 30.36 857 25.31 -8.6 16.6 165 -1.9 28.5
06:25 1028 30.36 857 25.31 -8.9 15.9 165 -2.3 27.8
06:30 1028 30.36 857 25.31 -9.1 15.6 165 -2.5 27.5
06:35 1028 30.36 857 25.31 -9.2 15.5 165 -2.5 27.4
06:40 1028 30.36 857 25.31 -9.1 15.6 165 -2.5 27.5
06:45 1028 30.36 857 25.31 -8.9 15.9 165 -2.3 27.8
06:50 1028 30.36 857 25.31 -8.9 16.1 165 -2.2 28
06:55 1028 30.36 857 25.31 -8.9 16 165 -2.3 27.9
07:00 1028 30.36 857 25.31 -8.9 16 165 -2.3 27.8
07:05 1028 30.36 857 25.31 -9 15.7 165 -2.4 27.6
07:10 1028 30.36 857 25.31 -9.4 15.1 165 -2.8 27
07:15 1028 30.36 857 25.31 -9.4 15 165 -2.9 26.9
07:20 1028 30.36 857 25.31 -9 15.7 165 -2.4 27.6
07:25 1028 30.36 857 25.31 -8.7 16.4 165 -2.1 28.3
07:30 1028 30.36 857 25.31 -8.5 16.7 165 -1.9 28.7
07:35 1028 30.36 857 25.31 -8 17.6 165 -1.4 29.5
07:40 1028 30.36 857 25.31 -7.3 18.8 165 -0.7 30.8
07:45 1028 30.36 857 25.31 -7 19.4 165 -0.3 31.4
07:50 1028 30.36 857 25.31 -6.8 19.7 165 -0.1 31.8
07:55 1028 30.36 857 25.31 -6.5 20.3 165 0.2 32.4
08:00 1028 30.36 857 25.31 -6.2 20.9 165 0.6 33
08:05 1028 30.36 857 25.31 -6.2 20.9 165 0.6 33
08:10 1028 30.36 857 25.31 -6.1 21.1 165 0.7 33.2
08:15 1028 30.36 857 25.31 -5.8 21.6 165 1 33.8
08:20 1028 30.36 857 25.31 -5.6 21.9 165 1.1 34
08:25 1028 30.36 857 25.31 -5.7 21.8 165 1.1 33.9
08:30 1028 30.36 857 25.31 -5.4 22.3 165 1.4 34.4
08:35 1028 30.36 858 25.34 -5.1 22.8 165 1.7 35
08:40 1029 30.39 858 25.34 -4.8 23.4 165 2 35.6
08:45 1029 30.39 858 25.34 -4.7 23.6 164 2.1 35.8
08:50 1029 30.39 858 25.34 -4.7 23.6 165 2.1 35.8
08:55 1029 30.39 858 25.34 -4.8 23.3 165 2 35.5
09:00 1029 30.39 858 25.34 -4.7 23.6 165 2.1 35.8
09:05 1029 30.39 858 25.34 -4.6 23.8 165 2.2 36
09:10 1029 30.39 858 25.34 -5.4 22.2 165 1.3 34.4
09:15 1029 30.39 858 25.34 -5.6 21.9 165 1.1 34
09:20 1029 30.39 858 25.34 -5.3 22.4 165 1.4 34.6
09:25 1029 30.39 858 25.34 -5.3 22.5 165 1.5 34.7
09:30 1029 30.39 858 25.34 -5.2 22.6 165 1.5 34.8
09:35 1029 30.39 858 25.34 -5.3 22.4 165 1.5 34.6
09:40 1029 30.39 858 25.34 -5.4 22.3 165 1.4 34.5
09:45 1029 30.39 858 25.34 -5.8 21.6 165 0.9 33.7
09:50 1029 30.39 858 25.34 -5.7 21.8 165 1.1 33.9
09:55 1029 30.39 858 25.34 -5.8 21.6 165 1 33.7
10:00 1029 30.39 858 25.34 -6 21.2 165 0.7 33.3
10:05 1029 30.39 858 25.34 -5.5 22.1 165 1.2 34.2
10:10 1029 30.39 858 25.34 -4.9 23.1 165 1.9 35.3
10:15 1029 30.39 858 25.34 -4.1 24.5 165 2.7 36.8
10:20 1029 30.39 858 25.34 -3.8 25.1 164 3 37.4
10:25 1029 30.39 858 25.34 -3.3 26.1 164 3.6 38.4
10:30 1029 30.39 858 25.34 -2.6 27.4 164 4.3 39.8
10:35 1029 30.39 858 25.34 -2.5 27.4 164 4.3 39.8
10:40 1029 30.39 858 25.34 -2.2 28 164 4.7 40.4
10:45 1028 30.36 858 25.34 -1.7 28.9 164 5.2 41.4
10:50 1028 30.36 858 25.34 -1 30.1 164 5.9 42.7
10:55 1029 30.39 858 25.34 -0.3 31.4 164 6.6 44
11:00 1029 30.39 858 25.34 0.2 32.3 164 7.2 44.9
11:05 1028 30.36 858 25.34 0.6 33 76 -3.2 26.2
11:10 1029 30.39 858 25.34 0.2 32.3 73 -4 24.8
11:15 1029 30.39 858 25.34 -0.6 30.9 75 -4.5 23.8
11:20 1028 30.36 858 25.34 -0.3 31.5 73 -4.6 23.7
11:25 1028 30.36 858 25.34 -0.5 31 72 -4.9 23.2
11:30 1028 30.36 858 25.34 -0.3 31.4 72 -4.8 23.3
11:35 1028 30.36 858 25.34 -0.2 31.7 71 -4.8 23.3
11:40 1028 30.36 858 25.34 -0.3 31.5 72 -4.8 23.3
11:45 1029 30.39 858 25.34 0.1 32.2 70 -4.7 23.6
11:50 1028 30.36 858 25.34 0.5 32.8 69 -4.6 23.6
11:55 1028 30.36 858 25.34 0.5 32.9 69 -4.5 23.9
12:00 1028 30.36 858 25.34 0.9 33.5 69 -4.2 24.5
12:05 1028 30.36 858 25.34 1.5 34.8 66 -4.2 24.4
12:10 1028 30.36 858 25.34 1.6 34.9 66 -4.2 24.5
12:15 1028 30.36 858 25.34 2 35.5 63 -4.3 24.3
12:20 1028 30.36 857 25.31 2.3 36.1 62 -4.2 24.4
12:25 1028 30.36 857 25.31 2.1 35.9 62 -4.4 24.1
12:30 1028 30.36 857 25.31 2.2 35.9 62 -4.5 24
12:35 1028 30.36 857 25.31 2.4 36.3 60 -4.6 23.6
12:40 1028 30.36 857 25.31 1.8 35.3 61 -4.8 23.4
12:45 1028 30.36 857 25.31 2.2 35.9 61 -4.6 23.7
12:50 1028 30.36 857 25.31 2.7 36.8 58 -4.7 23.5
12:55 1028 30.36 857 25.31 2.5 36.5 58 -4.9 23.3
13:00 1028 30.36 857 25.31 2.4 36.3 57 -5.3 22.4
13:05 1028 30.36 857 25.31 1.6 34.9 59 -5.5 22
13:10 1028 30.36 857 25.31 1.4 34.6 61 -5.3 22.5
13:15 1028 30.36 857 25.31 2.2 36 60 -4.8 23.4
13:20 1028 30.36 857 25.31 2.8 37 57 -4.8 23.3
13:25 1028 30.36 857 25.31 2.9 37.3 56 -5 22.9
13:30 1028 30.36 857 25.31 2.5 36.5 58 -5 23.1
13:35 1028 30.36 857 25.31 1.7 35 59 -5.6 22
13:40 1027 30.33 857 25.31 1.6 34.9 59 -5.6 22
13:45 1027 30.33 857 25.31 2 35.5 59 -5.2 22.6
13:50 1027 30.33 857 25.31 3.1 37.6 57 -4.6 23.7
13:55 1027 30.33 856 25.28 4 39.3 54 -4.5 24
14:00 1027 30.33 856 25.28 3.2 37.8 55 -5 23
14:05 1027 30.33 856 25.28 2.8 37.1 57 -4.9 23.2
14:10 1027 30.33 856 25.28 4.2 39.5 54 -4.2 24.4
14:15 1027 30.33 856 25.28 4.8 40.7 52 -4.3 24.3
14:20 1027 30.33 856 25.28 5.2 41.3 51 -4.2 24.4
14:25 1027 30.33 856 25.28 4.6 40.2 52 -4.4 24
14:30 1027 30.33 856 25.28 4.2 39.6 53 -4.6 23.8
14:35 1027 30.33 856 25.28 4.2 39.5 54 -4.3 24.2
14:40 1027 30.33 856 25.28 4.6 40.2 52 -4.3 24.2
14:45 1027 30.33 856 25.28 3.6 38.6 56 -4.3 24.3
14:50 1027 30.33 856 25.28 4 39.3 54 -4.4 24.1
14:55 1027 30.33 856 25.28 4.2 39.6 54 -4.2 24.4
15:00 1027 30.33 856 25.28 4.8 40.7 53 -4 24.9
15:05 1027 30.33 856 25.28 5.2 41.4 52 -3.8 25.1
15:10 1027 30.33 856 25.28 5.1 41.2 51 -4.1 24.6
15:15 1026 30.3 856 25.28 4.6 40.3 53 -4.1 24.6
15:20 1026 30.3 856 25.28 4.7 40.4 52 -4.3 24.2
15:25 1026 30.3 856 25.28 5 40.9 52 -4.1 24.7
15:30 1026 30.3 856 25.28 4.9 40.8 52 -4.2 24.4
15:35 1026 30.3 856 25.28 4.8 40.7 52 -4.1 24.6
15:40 1026 30.3 856 25.28 4.6 40.3 52 -4.3 24.3
15:45 1026 30.3 855 25.25 4.3 39.7 53 -4.4 24.1
15:50 1026 30.3 855 25.25 4.4 39.9 52 -4.5 23.9
15:55 1026 30.3 855 25.25 4 39.2 54 -4.4 24.2
16:00 1026 30.3 855 25.25 3.3 38 56 -4.5 23.8
16:05 1026 30.3 855 25.25 3.1 37.6 57 -4.7 23.6
16:10 1026 30.3 855 25.25 2.7 36.8 59 -4.4 24
16:15 1026 30.3 855 25.25 2.2 35.9 62 -4.4 24.1
16:20 1026 30.3 855 25.25 1.7 35.1 63 -4.5 24
16:25 1026 30.3 855 25.25 1.8 35.2 62 -4.7 23.5
16:30 1026 30.3 855 25.25 2 35.6 61 -4.7 23.5
16:35 1026 30.3 855 25.25 2.3 36.2 60 -4.7 23.5
16:40 1026 30.3 855 25.25 2.5 36.4 59 -4.8 23.3
16:45 1026 30.3 855 25.25 2.5 36.5 57 -5.1 22.8
16:50 1026 30.3 855 25.25 2.5 36.6 58 -5 23
16:55 1026 30.3 855 25.25 3 37.4 57 -4.6 23.7
17:00 1026 30.3 855 25.25 3.3 38 55 -4.8 23.3
17:05 1026 30.3 855 25.25 3.4 38.2 54 -5 23
17:10 1026 30.3 855 25.25 3.4 38 53 -5.2 22.6
17:15 1026 30.3 855 25.25 3.3 37.9 55 -5 23
17:20 1025 30.27 855 25.25 3.8 38.8 53 -5 23
17:25 1025 30.27 855 25.25 3.7 38.6 51 -5.7 21.8
17:30 1025 30.27 855 25.25 3 37.5 53 -5.5 22.1
17:35 1025 30.27 855 25.25 2.8 37 55 -5.4 22.2
17:40 1025 30.27 854 25.22 2.7 36.8 56 -5.3 22.4
17:45 1025 30.27 854 25.22 2.6 36.6 53 -6 21.3
17:50 1025 30.27 854 25.22 2.1 35.8 57 -5.6 21.9
17:55 1025 30.27 854 25.22 1.4 34.6 58 -5.9 21.4
18:00 1025 30.27 854 25.22 1 33.8 60 -5.8 21.5
18:05 1025 30.27 854 25.22 1 33.8 62 -5.6 21.9
18:10 1025 30.27 854 25.22 1 33.7 63 -5.4 22.3
18:15 1025 30.27 854 25.22 0.9 33.7 63 -5.2 22.6
18:20 1025 30.27 854 25.22 0.9 33.6 64 -5.2 22.7
18:25 1025 30.27 854 25.22 0.7 33.3 66 -4.9 23.1
18:30 1025 30.27 854 25.22 0.5 32.9 67 -4.9 23.1
18:35 1025 30.27 854 25.22 0.3 32.5 68 -4.9 23.1
18:40 1025 30.27 854 25.22 0.2 32.4 69 -4.8 23.3
18:45 1025 30.27 854 25.22 0.3 32.6 69 -4.7 23.5
18:50 1025 30.27 854 25.22 0.2 32.3 70 -4.6 23.7
18:55 1025 30.27 854 25.22 -0 31.9 72 -4.5 23.9
19:00 1025 30.27 854 25.22 -0.3 31.5 73 -4.6 23.8
19:05 1025 30.27 854 25.22 -0.5 31.1 73 -4.7 23.5
19:10 1025 30.27 854 25.22 -0.8 30.5 71 -5.5 22.1
19:15 1025 30.27 854 25.22 -0.9 30.4 71 -5.6 22
19:20 1025 30.27 854 25.22 -1.2 29.9 72 -5.6 22
19:25 1025 30.27 854 25.22 -1.4 29.5 73 -5.6 22
19:30 1025 30.27 854 25.22 -1.3 29.6 73 -5.6 21.9
19:35 1025 30.27 854 25.22 -0.7 30.7 72 -5.2 22.6
19:40 1025 30.27 854 25.22 -0.3 31.5 71 -5 23
19:45 1025 30.27 854 25.22 -0.2 31.6 71 -4.9 23.2
19:50 1025 30.27 854 25.22 -0.6 31 71 -5.1 22.8
19:55 1025 30.27 854 25.22 -1 30.2 72 -5.4 22.2
20:00 1025 30.27 854 25.22 -1.2 29.9 72 -5.6 21.9
20:05 1024 30.24 854 25.22 -0.8 30.5 70 -5.6 22
20:10 1024 30.24 854 25.22 -0.7 30.7 70 -5.5 22
20:15 1024 30.24 854 25.22 -0.8 30.5 70 -5.7 21.8
20:20 1024 30.24 854 25.22 -0.8 30.5 70 -5.7 21.7
20:25 1024 30.24 854 25.22 -0.7 30.7 69 -5.8 21.6
20:30 1024 30.24 854 25.22 -0.7 30.8 68 -5.8 21.6
20:35 1024 30.24 854 25.22 -1.1 30 69 -6 21.2
20:40 1024 30.24 854 25.22 -1.2 29.9 70 -6 21.2
20:45 1024 30.24 854 25.22 -1.1 29.9 72 -5.5 22.1
20:50 1024 30.24 853 25.19 -1.4 29.5 72 -5.8 21.6
20:55 1024 30.24 854 25.22 -1.2 29.8 72 -5.7 21.8
21:00 1024 30.24 854 25.22 -0.5 31.1 69 -5.5 22.2
21:05 1024 30.24 853 25.19 -0.4 31.3 70 -5.3 22.5
21:10 1024 30.24 853 25.19 -0.7 30.7 73 -5 23
21:15 1024 30.24 853 25.19 -1.3 29.6 75 -5.1 22.8
21:20 1024 30.24 853 25.19 -1.6 29.1 77 -5.2 22.7
21:25 1024 30.24 853 25.19 -1.4 29.4 77 -4.9 23.2
21:30 1024 30.24 853 25.19 -1 30.1 76 -4.7 23.6
21:35 1024 30.24 853 25.19 -1.1 30 77 -4.7 23.5
21:40 1024 30.24 853 25.19 -1 30.2 76 -4.7 23.5
21:45 1024 30.24 853 25.19 -0.9 30.5 76 -4.6 23.7
21:50 1024 30.24 853 25.19 -0.9 30.4 75 -4.7 23.5
21:55 1024 30.24 853 25.19 -0.9 30.3 76 -4.6 23.6
22:00 1024 30.24 853 25.19 -0.6 30.9 74 -4.7 23.6
22:05 1024 30.24 853 25.19 -0.5 31.1 73 -4.7 23.5
22:10 1024 30.24 853 25.19 -0.8 30.5 75 -4.8 23.3
22:15 1024 30.24 853 25.19 -1.3 29.7 76 -5 23
22:20 1024 30.24 853 25.19 -1.5 29.4 76 -5.1 22.7
22:25 1024 30.24 853 25.19 -1.7 29 77 -5.1 22.8
22:30 1024 30.24 853 25.19 -1.8 28.8 78 -5.1 22.7
22:35 1024 30.24 853 25.19 -1.7 28.9 77 -5.1 22.7
22:40 1024 30.24 853 25.19 -1.7 29 77 -5.1 22.8
22:45 1024 30.24 853 25.19 -1.6 29.1 77 -5.1 22.8
22:50 1024 30.24 853 25.19 -1.5 29.3 77 -5 23
22:55 1024 30.24 853 25.19 -1.2 29.9 76 -4.8 23.3
23:00 1024 30.24 853 25.19 -1 30.1 76 -4.8 23.3
23:05 1024 30.24 853 25.19 -1.1 30.1 76 -4.8 23.3
23:10 1024 30.24 853 25.19 -1.2 29.9 76 -4.8 23.4
23:15 1024 30.24 853 25.19 -1.3 29.7 76 -5 23.1
23:20 1024 30.24 853 25.19 -1.5 29.3 76 -5.1 22.8
23:25 1024 30.24 853 25.19 -1.6 29.2 76 -5.2 22.7
23:30 1024 30.24 853 25.19 -1.8 28.7 77 -5.3 22.5
23:35 1024 30.24 853 25.19 -2.1 28.2 79 -5.3 22.4
23:40 1024 30.24 853 25.19 -1.9 28.6 78 -5.2 22.6
23:45 1024 30.24 853 25.19 -1.8 28.8 78 -5.1 22.8
23:50 1024 30.24 853 25.19 -1.8 28.8 78 -5.1 22.8
23:55 1024 30.24 853 25.19 -1.7 28.9 78 -5.1 22.8
24:00 1024 30.24 853 25.19 -1.7 29 78 -5.1 22.9